Heat Index SAI AWOS Graphical Display Untitled Document
Bertrand Chaffee Hospital Heliport (2NK6) Springville, New York, USA
150
12:40
28/08/2015
00
N/A
N/A
30.23
N/A
1420
56(F), 13(C)
54(F), 12(C)
56 F
94%
BKN049
10
N/A
0"
N/A
12:40 zulu Wind Calm, Altimeter 30.23
METAR K2NK6 281240Z AUTO 00000KT 10SM BKN049 13/12 A3023 A02 P0000
METAR:
FAA Disclaimer--Advisory Use ONLY, not for flight info--
INFO:
Wind Direction:
Wind Speed:
Wind Gust:
Wind Variable:
Altimeter:
Dens Alt:
Elev:
Temp:
Dwpt:
Wind Chill
Rel Humidity:
Ceiling:
Visibility:
Prsnt Wea:
PCPN:
Remarks:
How to read the WebPage